createdAt,value
2022-12-04T00:00:36.649Z,101587.00
2022-12-04T00:03:05.919Z,101574.03
2022-12-04T00:05:33.725Z,101576.81
2022-12-04T00:08:01.515Z,101576.81
2022-12-04T00:10:29.430Z,101565.38
2022-12-04T00:12:57.195Z,101575.72
2022-12-04T00:15:26.279Z,101577.13
2022-12-04T00:17:54.675Z,101579.13
2022-12-04T00:20:24.097Z,101581.69
2022-12-04T00:22:51.844Z,101576.56
2022-12-04T00:25:19.867Z,101572.50
2022-12-04T00:27:47.662Z,101580.53
2022-12-04T00:30:15.616Z,101578.25
2022-12-04T00:32:43.382Z,101581.81
2022-12-04T00:35:11.276Z,101571.25
2022-12-04T00:37:40.541Z,101574.78
2022-12-04T00:40:09.479Z,101578.34
2022-12-04T00:42:37.389Z,101569.44
2022-12-04T00:45:05.721Z,101567.56
2022-12-04T00:47:33.493Z,101563.03
2022-12-04T00:50:01.256Z,101561.94
2022-12-04T00:52:29.275Z,101569.13
2022-12-04T00:54:58.641Z,101565.63
2022-12-04T00:57:26.426Z,101568.75
2022-12-04T00:59:54.371Z,101557.19
2022-12-04T01:02:22.525Z,101564.44
2022-12-04T01:04:50.350Z,101568.44
2022-12-04T01:07:18.226Z,101566.72
2022-12-04T01:09:46.130Z,101567.84
2022-12-04T01:12:21.132Z,101560.09
2022-12-04T01:14:53.633Z,101559.09
2022-12-04T01:17:27.127Z,101562.25
2022-12-04T01:19:58.342Z,101564.75
2022-12-04T01:22:26.337Z,101567.59
2022-12-04T01:24:56.635Z,101572.06
2022-12-04T01:27:26.958Z,101570.50
2022-12-04T01:29:55.099Z,101568.63
2022-12-04T01:32:25.620Z,101564.28
2022-12-04T01:34:53.510Z,101567.06
2022-12-04T01:37:21.243Z,101562.88
2022-12-04T01:39:51.238Z,101566.44
2022-12-04T01:42:19.270Z,101564.59
2022-12-04T01:45:20.326Z,101572.47
2022-12-04T01:47:49.647Z,101565.66
2022-12-04T01:50:17.536Z,101571.84
2022-12-04T01:52:45.359Z,101568.31
2022-12-04T01:55:13.597Z,101568.47
2022-12-04T01:57:42.687Z,101573.78
2022-12-04T02:00:15.304Z,101567.72
2022-12-04T02:02:48.451Z,101574.88
2022-12-04T02:05:20.967Z,101564.16
2022-12-04T02:07:50.460Z,101563.13
2022-12-04T02:10:24.433Z,101555.06
2022-12-04T02:13:00.330Z,101555.84
2022-12-04T02:15:36.905Z,101554.75
2022-12-04T02:18:11.202Z,101544.00
2022-12-04T02:20:46.878Z,101546.47
2022-12-04T02:23:32.944Z,101550.47
2022-12-04T02:26:06.413Z,101550.53
2022-12-04T02:28:41.594Z,101553.09
2022-12-04T02:31:15.953Z,101545.28
2022-12-04T02:33:49.215Z,101536.59
2022-12-04T02:36:22.008Z,101537.53
2022-12-04T02:38:54.525Z,101545.47
2022-12-04T02:41:25.562Z,101547.22
2022-12-04T02:43:58.604Z,101541.16
2022-12-04T02:46:30.321Z,101552.84
2022-12-04T02:49:03.152Z,101552.38
2022-12-04T02:51:35.773Z,101536.91
2022-12-04T02:54:12.089Z,101537.22
2022-12-04T02:56:45.139Z,101536.19
2022-12-04T02:59:20.305Z,101536.28
2022-12-04T03:01:52.738Z,101528.41
2022-12-04T03:04:22.291Z,101537.50
2022-12-04T03:06:53.723Z,101529.72
2022-12-04T03:09:26.042Z,101535.47
2022-12-04T03:11:58.340Z,101538.00
2022-12-04T03:14:33.161Z,101540.63
2022-12-04T03:17:06.901Z,101542.44
2022-12-04T03:19:40.254Z,101539.66
2022-12-04T03:22:11.725Z,101544.47
2022-12-04T03:24:44.641Z,101537.53
2022-12-04T03:27:16.719Z,101535.06
2022-12-04T03:29:49.909Z,101538.63
2022-12-04T03:32:26.265Z,101537.75
2022-12-04T03:35:00.046Z,101533.44
2022-12-04T03:37:35.285Z,101538.00
2022-12-04T03:40:10.472Z,101545.66
2022-12-04T03:42:44.384Z,101540.38
2022-12-04T03:45:22.268Z,101535.78
2022-12-04T03:47:58.075Z,101545.50
2022-12-04T03:50:33.608Z,101550.94
2022-12-04T03:53:08.134Z,101544.78
2022-12-04T03:55:42.959Z,101543.91
2022-12-04T03:58:15.208Z,101544.06
2022-12-04T04:00:45.616Z,101540.63
2022-12-04T04:03:17.799Z,101534.38
2022-12-04T04:05:52.580Z,101539.91
2022-12-04T04:08:28.017Z,101532.91
2022-12-04T04:11:00.121Z,101528.41
2022-12-04T04:13:50.839Z,101532.66
2022-12-04T04:16:41.720Z,101537.75
2022-12-04T04:19:28.013Z,101539.72
2022-12-04T04:22:14.723Z,101532.81
2022-12-04T04:24:46.091Z,101533.53
2022-12-04T04:27:14.415Z,101535.56
2022-12-04T04:29:49.286Z,101537.31
2022-12-04T04:32:32.096Z,101542.63
2022-12-04T04:35:10.375Z,101546.31
2022-12-04T04:37:48.215Z,101540.22
2022-12-04T04:40:22.710Z,101542.00
2022-12-04T04:42:56.579Z,101540.09
2022-12-04T04:45:28.746Z,101545.34
2022-12-04T04:48:04.130Z,101541.91
2022-12-04T04:50:34.111Z,101538.31
2022-12-04T04:53:08.156Z,101530.28
2022-12-04T04:55:37.196Z,101538.72
2022-12-04T04:58:10.123Z,101539.84
2022-12-04T05:00:38.746Z,101545.03
2022-12-04T05:03:07.976Z,101538.88
2022-12-04T05:05:35.803Z,101543.28
2022-12-04T05:08:03.711Z,101542.59
2022-12-04T05:10:31.522Z,101537.25
2022-12-04T05:12:59.292Z,101541.63
2022-12-04T05:15:27.058Z,101541.34
2022-12-04T05:17:54.771Z,101539.28
2022-12-04T05:20:23.838Z,101540.13
2022-12-04T05:22:51.624Z,101538.50
2022-12-04T05:25:19.362Z,101536.66
2022-12-04T05:27:47.173Z,101533.09
2022-12-04T05:30:15.330Z,101534.00
2022-12-04T05:32:43.216Z,101532.59
2022-12-04T05:35:11.683Z,101532.75
2022-12-04T05:37:41.743Z,101531.75
2022-12-04T05:40:10.640Z,101529.09
2022-12-04T05:42:38.374Z,101534.63
2022-12-04T05:45:07.136Z,101531.69
2022-12-04T05:47:39.683Z,101525.56
2022-12-04T05:50:07.778Z,101524.78
2022-12-04T05:52:35.821Z,101523.00
2022-12-04T05:55:05.836Z,101522.09
2022-12-04T05:57:33.624Z,101521.81
2022-12-04T06:00:01.353Z,101532.09
2022-12-04T06:02:29.191Z,101526.09
2022-12-04T06:04:57.074Z,101528.06
2022-12-04T06:07:24.844Z,101524.69
2022-12-04T06:09:56.632Z,101529.28
2022-12-04T06:12:26.163Z,101522.59
2022-12-04T06:14:53.894Z,101525.31
2022-12-04T06:17:21.696Z,101528.00
2022-12-04T06:19:49.688Z,101531.47
2022-12-04T06:22:17.696Z,101523.66
2022-12-04T06:24:45.583Z,101522.09
2022-12-04T06:27:29.042Z,101531.13
2022-12-04T06:29:58.714Z,101527.84
2022-12-04T06:32:26.805Z,101528.88
2022-12-04T06:34:55.929Z,101530.66
2022-12-04T06:37:25.986Z,101530.38
2022-12-04T06:39:54.027Z,101530.38
2022-12-04T06:42:21.993Z,101531.22
2022-12-04T06:44:50.365Z,101535.03
2022-12-04T06:47:19.563Z,101534.19
2022-12-04T06:49:50.615Z,101543.09
2022-12-04T06:52:18.987Z,101535.03
2022-12-04T06:54:46.806Z,101533.31
2022-12-04T06:57:14.594Z,101533.84
2022-12-04T06:59:42.340Z,101545.91
2022-12-04T07:02:10.718Z,101548.34
2022-12-04T07:04:39.884Z,101546.59
2022-12-04T07:07:09.922Z,101544.94
2022-12-04T07:09:37.806Z,101541.50
2022-12-04T07:12:06.314Z,101540.69
2022-12-04T07:14:34.061Z,101541.31
2022-12-04T07:17:02.019Z,101546.47
2022-12-04T07:19:29.912Z,101549.28
2022-12-04T07:21:59.259Z,101548.34
2022-12-04T07:24:29.261Z,101547.69
2022-12-04T07:26:57.131Z,101546.59
2022-12-04T07:29:25.017Z,101549.28
2022-12-04T07:31:52.971Z,101549.28
2022-12-04T07:34:20.961Z,101551.97
2022-12-04T07:36:48.789Z,101552.03
2022-12-04T07:39:18.171Z,101552.75
2022-12-04T07:41:45.932Z,101551.88
2022-12-04T07:44:13.671Z,101551.09
2022-12-04T07:46:41.456Z,101553.03
2022-12-04T07:49:12.871Z,101558.59
2022-12-04T07:51:40.673Z,101560.97
2022-12-04T07:54:09.379Z,101567.06
2022-12-04T07:56:38.788Z,101566.34
2022-12-04T07:59:06.820Z,101565.06
2022-12-04T08:01:34.847Z,101566.84
2022-12-04T08:04:04.482Z,101571.38
2022-12-04T08:06:35.198Z,101582.91
2022-12-04T08:09:09.830Z,101586.66
2022-12-04T08:11:39.845Z,101569.75
2022-12-04T08:14:09.031Z,101578.81
2022-12-04T08:16:37.077Z,101567.72
2022-12-04T08:19:05.465Z,101563.34
2022-12-04T08:21:33.857Z,101568.66
2022-12-04T08:24:03.224Z,101569.00
2022-12-04T08:26:33.624Z,101574.25
2022-12-04T08:29:03.890Z,101577.00
2022-12-04T08:31:34.081Z,101585.72
2022-12-04T08:34:04.714Z,101578.81
2022-12-04T08:36:33.347Z,101578.19
2022-12-04T08:39:03.971Z,101582.78
2022-12-04T08:41:32.023Z,101573.13
2022-12-04T08:44:01.029Z,101568.03
2022-12-04T08:46:30.715Z,101565.34
2022-12-04T08:49:00.770Z,101561.72
2022-12-04T08:51:30.723Z,101559.06
2022-12-04T08:54:00.654Z,101569.75
2022-12-04T08:56:29.850Z,101560.13
2022-12-04T08:58:58.216Z,101569.09
2022-12-04T09:01:27.080Z,101569.00
2022-12-04T09:04:00.795Z,101569.06
2022-12-04T09:06:28.873Z,101570.19
2022-12-04T09:08:59.189Z,101585.09
2022-12-04T09:11:29.591Z,101579.91
2022-12-04T09:13:57.684Z,101580.03
2022-12-04T09:16:27.220Z,101576.53
2022-12-04T09:18:57.477Z,101581.00
2022-12-04T09:21:26.327Z,101576.75
2022-12-04T09:23:54.262Z,101577.66
2022-12-04T09:26:25.545Z,101577.81
2022-12-04T09:28:55.157Z,101584.81
2022-12-04T09:31:24.310Z,101579.56
2022-12-04T09:33:52.463Z,101580.94
2022-12-04T09:36:21.805Z,101582.91
2022-12-04T09:38:51.738Z,101578.41
2022-12-04T09:41:53.304Z,101576.53
2022-12-04T09:44:25.074Z,101568.63
2022-12-04T09:47:05.798Z,101582.91
2022-12-04T09:49:40.839Z,101581.09
2022-12-04T09:52:22.514Z,101574.28
2022-12-04T09:54:53.166Z,101555.88
2022-12-04T09:57:29.702Z,101561.38
2022-12-04T10:00:06.041Z,101568.47
2022-12-04T10:02:37.816Z,101560.44
2022-12-04T10:05:16.935Z,101567.28
2022-12-04T10:10:42.583Z,101577.66
2022-12-04T10:13:31.052Z,101573.03
2022-12-04T10:16:12.307Z,101570.47
2022-12-04T10:18:49.282Z,101568.81
2022-12-04T10:21:31.436Z,101571.59
2022-12-04T10:24:22.154Z,101575.84
2022-12-04T10:26:50.359Z,101566.22
2022-12-04T10:29:22.923Z,101564.50
2022-12-04T10:31:52.864Z,101561.19
2022-12-04T10:34:24.644Z,101568.13
2022-12-04T10:36:55.005Z,101569.06
2022-12-04T10:39:27.156Z,101557.38
2022-12-04T10:42:00.182Z,101552.31
2022-12-04T10:44:28.315Z,101564.69
2022-12-04T10:46:59.971Z,101555.94
2022-12-04T10:49:37.310Z,101552.59
2022-12-04T10:52:06.030Z,101553.59
2022-12-04T10:54:37.340Z,101540.47
2022-12-04T10:57:08.347Z,101544.91
2022-12-04T10:59:41.786Z,101543.34
2022-12-04T11:02:21.159Z,101536.06
2022-12-04T11:04:55.399Z,101527.34
2022-12-04T11:07:25.935Z,101538.28
2022-12-04T11:10:06.237Z,101538.38
2022-12-04T11:12:34.923Z,101537.66
2022-12-04T11:15:15.124Z,101534.16
2022-12-04T11:17:43.004Z,101527.88
2022-12-04T11:20:18.544Z,101532.44
2022-12-04T11:22:52.553Z,101525.56
2022-12-04T11:25:24.040Z,101523.88
2022-12-04T11:27:54.219Z,101519.44
2022-12-04T11:30:28.640Z,101502.66
2022-12-04T11:32:59.329Z,101502.75
2022-12-04T11:35:29.521Z,101502.59
2022-12-04T11:38:04.040Z,101498.03
2022-12-04T11:40:33.608Z,101493.41
2022-12-04T11:43:05.706Z,101494.28
2022-12-04T11:45:34.053Z,101481.16
2022-12-04T11:48:04.282Z,101484.75
2022-12-04T11:50:41.731Z,101485.91
2022-12-04T11:53:17.103Z,101485.09
2022-12-04T11:56:05.746Z,101483.41
2022-12-04T11:58:48.617Z,101481.66
2022-12-04T12:01:27.324Z,101479.81
2022-12-04T12:04:09.070Z,101486.13
2022-12-04T12:06:38.950Z,101492.31
2022-12-04T12:09:21.143Z,101478.31
2022-12-04T12:11:58.480Z,101477.53
2022-12-04T12:14:34.412Z,101482.09
2022-12-04T12:17:12.628Z,101477.13
2022-12-04T12:19:50.467Z,101470.13
2022-12-04T12:22:29.733Z,101468.44
2022-12-04T12:25:07.202Z,101464.28
2022-12-04T12:27:53.207Z,101467.88
2022-12-04T12:30:22.623Z,101463.28
2022-12-04T12:33:08.458Z,101473.06
2022-12-04T12:35:43.060Z,101464.06
2022-12-04T12:38:12.851Z,101465.97
2022-12-04T12:40:43.884Z,101471.34
2022-12-04T12:43:17.275Z,101462.28
2022-12-04T12:45:52.195Z,101470.16
2022-12-04T12:48:29.635Z,101464.84
2022-12-04T12:51:28.421Z,101462.34
2022-12-04T12:53:53.611Z,101466.75
2022-12-04T12:56:31.136Z,101465.16
2022-12-04T12:59:06.243Z,101460.84
2022-12-04T13:01:42.978Z,101452.84
2022-12-04T13:04:15.619Z,101448.34
2022-12-04T13:06:46.720Z,101446.47
2022-12-04T13:09:21.759Z,101455.38
2022-12-04T13:11:53.415Z,101449.41
2022-12-04T13:14:22.691Z,101446.75
2022-12-04T13:16:55.587Z,101444.19
2022-12-04T13:19:29.957Z,101450.25
2022-12-04T13:22:08.866Z,101451.25
2022-12-04T13:24:51.995Z,101451.13
2022-12-04T13:27:34.722Z,101454.69
2022-12-04T13:30:09.019Z,101447.75
2022-12-04T13:33:09.708Z,101450.56
2022-12-04T13:35:56.841Z,101447.72
2022-12-04T13:38:34.042Z,101441.28
2022-12-04T13:41:05.614Z,101438.44
2022-12-04T13:43:36.544Z,101441.75
2022-12-04T13:46:07.531Z,101443.56
2022-12-04T13:48:40.297Z,101448.13
2022-12-04T13:51:24.511Z,101445.53
2022-12-04T13:54:02.984Z,101440.78
2022-12-04T13:56:32.023Z,101444.03
2022-12-04T13:59:02.588Z,101443.34
2022-12-04T14:01:39.505Z,101446.19
2022-12-04T14:04:09.361Z,101448.94
2022-12-04T14:06:40.302Z,101448.94
2022-12-04T14:09:19.407Z,101444.41
2022-12-04T14:11:52.826Z,101439.63
2022-12-04T14:14:34.638Z,101433.56
2022-12-04T14:17:02.940Z,101438.16
2022-12-04T14:19:35.589Z,101431.94
2022-12-04T14:22:03.931Z,101429.56
2022-12-04T14:24:36.132Z,101442.16
2022-12-04T14:27:25.246Z,101423.47
2022-12-04T14:29:58.346Z,101436.31
2022-12-04T14:32:34.640Z,101430.13
2022-12-04T14:35:04.890Z,101440.19
2022-12-04T14:37:37.363Z,101438.47
2022-12-04T14:40:07.287Z,101439.31
2022-12-04T14:42:39.194Z,101442.13
2022-12-04T14:45:30.790Z,101438.72
2022-12-04T14:48:30.891Z,101437.06
2022-12-04T14:51:09.271Z,101435.34
2022-12-04T14:53:43.562Z,101426.38
2022-12-04T14:56:30.515Z,101433.19
2022-12-04T14:58:59.777Z,101434.09
2022-12-04T15:01:37.364Z,101438.66
2022-12-04T15:04:14.905Z,101436.66
2022-12-04T15:06:48.071Z,101440.13
2022-12-04T15:09:37.558Z,101434.66
2022-12-04T15:12:35.678Z,101433.63
2022-12-04T15:15:10.698Z,101434.81
2022-12-04T15:17:38.534Z,101433.94
2022-12-04T15:20:17.082Z,101437.44
2022-12-04T15:22:47.072Z,101440.91
2022-12-04T15:25:18.861Z,101444.59
2022-12-04T15:27:48.543Z,101443.75
2022-12-04T15:30:18.708Z,101443.84
2022-12-04T15:32:48.212Z,101445.59
2022-12-04T15:35:23.876Z,101446.19
2022-12-04T15:37:57.306Z,101448.00
2022-12-04T15:40:27.576Z,101447.19
2022-12-04T15:42:56.364Z,101444.63
2022-12-04T15:45:31.660Z,101452.56
2022-12-04T15:47:59.480Z,101445.53
2022-12-04T15:50:29.482Z,101441.94
2022-12-04T15:53:02.158Z,101442.97
2022-12-04T15:55:32.706Z,101451.78
2022-12-04T15:58:03.233Z,101446.53
2022-12-04T16:00:33.832Z,101449.25
2022-12-04T16:03:02.414Z,101444.59
2022-12-04T16:05:36.531Z,101453.34
2022-12-04T16:08:27.572Z,101449.06
2022-12-04T16:11:00.714Z,101452.75
2022-12-04T16:13:31.467Z,101456.34
2022-12-04T16:16:01.501Z,101454.50
2022-12-04T16:18:29.994Z,101466.69
2022-12-04T16:20:58.168Z,101455.97
2022-12-04T16:23:28.292Z,101454.09
2022-12-04T16:25:56.378Z,101451.38
2022-12-04T16:28:24.463Z,101465.31
2022-12-04T16:31:03.477Z,101460.22
2022-12-04T16:33:38.974Z,101453.25
2022-12-04T16:36:29.818Z,101464.59
2022-12-04T16:38:59.548Z,101473.50
2022-12-04T16:41:27.548Z,101464.84
2022-12-04T16:44:00.550Z,101459.56
2022-12-04T16:46:30.772Z,101456.91
2022-12-04T16:49:02.810Z,101456.09
2022-12-04T16:51:33.897Z,101459.13
2022-12-04T16:54:04.403Z,101468.78
2022-12-04T16:56:33.513Z,101461.84
2022-12-04T16:59:01.379Z,101464.63
2022-12-04T17:01:35.071Z,101456.91
2022-12-04T17:04:03.090Z,101465.75
2022-12-04T17:06:31.918Z,101463.97
2022-12-04T17:09:02.662Z,101464.00
2022-12-04T17:11:32.154Z,101474.75
2022-12-04T17:14:02.156Z,101476.41
2022-12-04T17:16:32.748Z,101476.41
2022-12-04T17:19:00.680Z,101482.69
2022-12-04T17:21:28.536Z,101479.19
2022-12-04T17:23:57.649Z,101486.97
2022-12-04T17:26:25.508Z,101486.75
2022-12-04T17:28:54.805Z,101486.91
2022-12-04T17:31:25.370Z,101492.25
2022-12-04T17:33:54.013Z,101499.97
2022-12-04T17:36:28.057Z,101499.78
2022-12-04T17:39:04.575Z,101500.91
2022-12-04T17:41:37.369Z,101505.84
2022-12-04T17:44:06.785Z,101500.69
2022-12-04T17:46:34.951Z,101495.59
2022-12-04T17:49:07.095Z,101497.63
2022-12-04T17:51:37.096Z,101499.38
2022-12-04T17:54:05.358Z,101496.56
2022-12-04T17:56:33.404Z,101497.66
2022-12-04T17:59:16.205Z,101496.53
2022-12-04T18:01:45.283Z,101498.25
2022-12-04T18:04:13.260Z,101499.38
2022-12-04T18:06:44.152Z,101492.88
2022-12-04T18:09:13.518Z,101489.06
2022-12-04T18:11:43.258Z,101487.16
2022-12-04T18:14:15.386Z,101496.94
2022-12-04T18:16:45.715Z,101494.34
2022-12-04T18:19:22.393Z,101490.06
2022-12-04T18:21:56.259Z,101485.75
2022-12-04T18:24:29.238Z,101493.50
2022-12-04T18:26:57.311Z,101493.97
2022-12-04T18:29:27.697Z,101482.25
2022-12-04T18:31:56.169Z,101480.75
2022-12-04T18:34:24.771Z,101481.75
2022-12-04T18:36:52.850Z,101474.69
2022-12-04T18:39:22.830Z,101481.72
2022-12-04T18:44:53.051Z,101473.56
2022-12-04T18:47:38.109Z,101480.00
2022-12-04T18:50:07.377Z,101466.94
2022-12-04T18:52:38.541Z,101469.53
2022-12-04T18:55:10.574Z,101476.47
2022-12-04T18:58:45.422Z,101479.03
2022-12-04T19:03:39.181Z,101481.31
2022-12-04T19:06:08.228Z,101481.41
2022-12-04T19:08:43.205Z,101477.97
2022-12-04T19:11:16.585Z,101486.53
2022-12-04T19:13:51.831Z,101486.53
2022-12-04T19:16:44.464Z,101490.09
2022-12-04T19:19:36.349Z,101496.25
2022-12-04T19:23:00.402Z,101492.66
2022-12-04T19:25:35.088Z,101485.78
2022-12-04T19:31:09.864Z,101491.22
2022-12-04T19:33:39.538Z,101477.63
2022-12-04T19:36:09.748Z,101483.63
2022-12-04T19:38:39.755Z,101481.16
2022-12-04T19:41:10.587Z,101491.63
2022-12-04T19:43:39.078Z,101487.44
2022-12-04T19:46:09.421Z,101486.56
2022-12-04T19:48:40.348Z,101492.94
2022-12-04T19:51:12.213Z,101495.47
2022-12-04T19:53:44.810Z,101493.88
2022-12-04T19:56:14.971Z,101495.84
2022-12-04T19:58:43.639Z,101497.66
2022-12-04T20:01:14.502Z,101491.38
2022-12-04T20:03:43.225Z,101501.94
2022-12-04T20:06:18.170Z,101502.28
2022-12-04T20:08:47.322Z,101507.66
2022-12-04T20:11:18.722Z,101507.53
2022-12-04T20:13:48.597Z,101506.59
2022-12-04T20:16:19.637Z,101506.72
2022-12-04T20:18:49.255Z,101509.25
2022-12-04T20:21:19.075Z,101504.09
2022-12-04T20:23:50.003Z,101509.28
2022-12-04T20:26:20.948Z,101506.34
2022-12-04T20:28:50.747Z,101507.31
2022-12-04T20:31:22.456Z,101497.75
2022-12-04T20:33:52.823Z,101501.28
2022-12-04T20:36:41.219Z,101505.56
2022-12-04T20:39:11.015Z,101498.59
2022-12-04T20:41:40.313Z,101504.97
2022-12-04T20:44:19.130Z,101499.63
2022-12-04T20:46:56.935Z,101489.22
2022-12-04T20:49:26.900Z,101495.28
2022-12-04T20:52:33.646Z,101488.34
2022-12-04T20:55:03.768Z,101491.88
2022-12-04T20:57:33.180Z,101489.09
2022-12-04T21:00:01.797Z,101497.91
2022-12-04T21:02:30.108Z,101495.28
2022-12-04T21:04:58.138Z,101492.63
2022-12-04T21:07:27.547Z,101485.69
2022-12-04T21:09:56.177Z,101477.97
2022-12-04T21:12:43.336Z,101471.81
2022-12-04T21:15:28.975Z,101478.78
2022-12-04T21:17:56.906Z,101478.94
2022-12-04T21:20:24.999Z,101473.38
2022-12-04T21:22:54.444Z,101480.47
2022-12-04T21:25:22.405Z,101475.88
2022-12-04T21:27:50.341Z,101472.34
2022-12-04T21:30:18.206Z,101476.81
2022-12-04T21:32:46.024Z,101476.75
2022-12-04T21:35:13.928Z,101480.03
2022-12-04T21:37:42.002Z,101474.84
2022-12-04T21:40:12.022Z,101479.31
2022-12-04T21:42:40.347Z,101477.53
2022-12-04T21:45:08.982Z,101470.09
2022-12-04T21:47:39.653Z,101480.84
2022-12-04T21:50:11.052Z,101477.53
2022-12-04T21:52:39.057Z,101483.16
2022-12-04T21:55:08.785Z,101487.09
2022-12-04T21:57:39.349Z,101480.66
2022-12-04T22:00:10.390Z,101481.72
2022-12-04T22:02:40.066Z,101484.31
2022-12-04T22:05:08.780Z,101482.47
2022-12-04T22:07:36.632Z,101487.66
2022-12-04T22:10:10.366Z,101489.44
2022-12-04T22:12:49.943Z,101492.03
2022-12-04T22:15:18.504Z,101490.47
2022-12-04T22:17:46.504Z,101495.81
2022-12-04T22:20:14.466Z,101492.47
2022-12-04T22:22:42.318Z,101493.38
2022-12-04T22:25:10.863Z,101493.38
2022-12-04T22:27:40.139Z,101496.75
2022-12-04T22:30:09.267Z,101505.56
2022-12-04T22:32:37.111Z,101499.13
2022-12-04T22:35:05.280Z,101500.06
2022-12-04T22:37:33.296Z,101501.19
2022-12-04T22:40:01.715Z,101500.34
2022-12-04T22:42:32.194Z,101508.22
2022-12-04T22:45:01.765Z,101503.88
2022-12-04T22:47:31.440Z,101501.94
2022-12-04T22:49:59.719Z,101507.41
2022-12-04T22:52:31.139Z,101504.94
2022-12-04T22:54:59.140Z,101507.66
2022-12-04T22:57:27.850Z,101512.00
2022-12-04T22:59:56.153Z,101515.47
2022-12-04T23:02:25.754Z,101517.41
2022-12-04T23:04:53.990Z,101520.97
2022-12-04T23:07:22.184Z,101519.88
2022-12-04T23:09:50.142Z,101516.22
2022-12-04T23:12:18.266Z,101514.66
2022-12-04T23:14:46.391Z,101515.53
2022-12-04T23:17:14.456Z,101510.38
2022-12-04T23:19:44.107Z,101507.03
2022-12-04T23:22:12.251Z,101521.25
2022-12-04T23:24:41.463Z,101515.13
2022-12-04T23:27:09.731Z,101516.91
2022-12-04T23:29:53.132Z,101510.50
2022-12-04T23:32:21.914Z,101518.50
2022-12-04T23:34:53.105Z,101508.00
2022-12-04T23:37:21.202Z,101512.66
2022-12-04T23:39:49.263Z,101511.91
2022-12-04T23:42:17.223Z,101508.38
2022-12-04T23:44:47.786Z,101515.63
2022-12-04T23:47:15.834Z,101510.38
2022-12-04T23:49:45.183Z,101506.81
2022-12-04T23:52:14.727Z,101509.53
2022-12-04T23:54:42.709Z,101506.34
2022-12-04T23:57:10.914Z,101502.88
2022-12-04T23:59:39.217Z,101504.72
